• Join FlightAware (Why Join?)
  • Login
  • US Flag 
10:15PM EDT


 

Airport Tracker/Info


-or-


 

Live Flight TrackerFlight Track Log ✈ SWA3584 ✈ 10-Apr-2013 ✈ KPHL - KBNA

Flight Track Log - Related Links

Times and Time Zones

All times are in EDT time to prevent confusion due to time zone crossing. See the SWA3584 flight status page for this flight to view local times or setup timezone preferences in your user account.

Time Position Orientation Groundspeed Altitude Reporting Facility
EDT Latitude Longitude Course Direction KTS MPH feet Rate Location/Type
10:17AM 39.8564 -75.2953 249° West 163 188 1,600  Level FAA TRACON SMA TRACON (SMA)
10:17AM 39.8511 -75.3175 253° West 202 232 2,200 2,400 Climbing FAA TRACON SMA TRACON (SMA)
10:18AM 39.8456 -75.3428 254° West 204 235 3,200 2,700 Climbing FAA TRACON SMA TRACON (SMA)
10:18AM 39.8400 -75.3653 252° West 207 238 4,000 2,100 Climbing FAA TRACON SMA TRACON (SMA)
10:18AM 39.8328 -75.3911 250° West 222 255 4,600 2,400 Climbing FAA TRACON SMA TRACON (SMA)
10:19AM 39.8261 -75.4211 254° West 250 288 5,600 3,420 Climbing FAA TRACON SMA TRACON (SMA)
10:19AM 39.8186 -75.4533 253° West 249 287 6,900 3,420 Climbing FAA TRACON SMA TRACON (SMA)
10:19AM 39.8128 -75.4806 254° West 247 284 7,900 2,700 Climbing FAA TRACON SMA TRACON (SMA)
10:20AM 39.8131 -75.5078 271° West 249 287 8,700 2,580 Climbing FAA TRACON SMA TRACON (SMA)
10:20AM 39.8181 -75.5431 280° West 258 297 9,700 1,920 Climbing FAA TRACON SMA TRACON (SMA)
10:20AM 39.8217 -75.5697 280° West 258 297 10,000 600 Climbing FAA TRACON SMA TRACON (SMA)
10:21AM 39.8267 -75.6036 281° West 284 327 10,100 720 Climbing FAA TRACON SMA TRACON (SMA)
10:21AM 39.8311 -75.6367 280° West 302 348 10,500 2,700 Climbing FAA TRACON SMA TRACON (SMA)
10:21AM 39.8369 -75.6789 280° West 307 353 11,900 3,420 Climbing FAA TRACON SMA TRACON (SMA)
10:22AM 39.8417 -75.7117 281° West 307 353 12,800 2,700 Climbing FAA TRACON SMA TRACON (SMA)
10:22AM 39.8472 -75.7472 282° West 309 356 13,700 2,700 Climbing FAA TRACON SMA TRACON (SMA)
10:22AM 39.8511 -75.7869 277° West 317 365 14,600 2,520 Climbing FAA TRACON SMA TRACON (SMA)
10:23AM 39.8581 -75.8269 283° West 323 372 15,400 2,400 Climbing FAA TRACON SMA TRACON (SMA)
10:23AM 39.8628 -75.8639 279° West 332 382 16,200 2,520 Climbing FAA TRACON SMA TRACON (SMA)
10:23AM 39.8694 -75.9078 281° West 339 390 17,100 2,520 Climbing FAA TRACON SMA TRACON (SMA)
10:24AM 39.8744 -75.9472 279° West 339 390 17,900 1,500 Climbing FAA TRACON SMA TRACON (SMA)
10:24AM 39.8764 -75.9572 284° West 340 391 18,100 180 Climbing FAA TRACON SMA TRACON (SMA)
10:25AM 39.8764 -75.9572 237° Southwest 340 391 18,100 1,920 Level FAA TRACON SMA TRACON (SMA)
10:27AM 39.9131 -76.3461 277° West 367 422 23,700 2,280 Climbing New York Center
10:28AM 39.9167 -76.4844 272° West 379 436 25,500 1,440 Climbing New York Center
10:30AM 39.8761 -76.8297 261° West 407 468 28,700 1,500 Climbing Washington Center
10:31AM 39.8058 -76.9744 238° Southwest 412 474 30,600 1,620 Climbing Washington Center
10:32AM 39.7525 -77.0839 238° Southwest 423 487 32,000 1,500 Climbing Washington Center
10:33AM 39.6881 -77.2228 239° Southwest 423 487 33,600 960 Climbing Washington Center
10:34AM 39.6322 -77.3347 237° Southwest 417 480 34,000 180 Climbing Washington Center
10:35AM 39.5678 -77.4706 238° Southwest 412 474 34,000  Level Washington Center
10:36AM 39.5139 -77.5847 239° Southwest 412 474 34,000  Level Washington Center
10:37AM 39.4469 -77.7228 238° Southwest 412 474 34,000  Level Washington Center
10:38AM 39.3928 -77.8367 238° Southwest 417 480 34,000 480 Level Washington Center
10:39AM 39.3378 -77.9772 243° Southwest 417 480 35,000 900 Climbing Washington Center
10:40AM 39.2811 -78.1039 240° Southwest 411 473 35,900 480 Climbing Washington Center
10:41AM 39.2392 -78.2150 244° Southwest 400 460 36,000  Climbing Washington Center
10:42AM 39.1842 -78.3497 242° Southwest 394 453 36,000  Level Washington Center
10:43AM 39.1397 -78.4606 243° Southwest 394 453 36,000  Level Washington Center
10:45AM 39.0730 -78.6113 240° Southwest  Level FlightAware Approximate
10:45AM 39.0372 -78.7289 240° Southwest 394 453 36,000  Level Washington Center
10:46AM 38.9858 -78.8550 242° Southwest 399 459 36,000  Level Washington Center
10:47AM 38.9369 -78.9650 240° Southwest 407 468 36,000  Level Washington Center
10:48AM 38.8900 -79.0775 242° Southwest 407 468 36,000  Level Washington Center
10:49AM 38.8372 -79.2375 247° West 407 468 36,000  Level Washington Center
10:50AM 38.8122 -79.3775 257° West 407 468 36,000  Level Washington Center
10:51AM 38.7867 -79.5175 257° West 407 468 36,000  Level Washington Center
10:53AM 38.7286 -79.8122 256° West 405 466 36,000  Level Indianapolis Center
10:54AM 38.7036 -79.9494 257° West 399 459 36,000  Level Indianapolis Center
10:56AM 38.6772 -80.0878 256° West 399 459 36,000  Level Indianapolis Center
10:57AM 38.6528 -80.2233 257° West 393 452 36,000  Level Indianapolis Center
10:58AM 38.6264 -80.3586 256° West 392 451 36,000  Level Indianapolis Center
10:59AM 38.6022 -80.4936 257° West 391 450 36,000  Level Indianapolis Center
11:00AM 38.5706 -80.6561 256° West 390 449 36,000  Level Indianapolis Center
11:01AM 38.5444 -80.7917 256° West 392 451 36,000  Level Indianapolis Center
11:02AM 38.5178 -80.9261 256° West 389 448 36,000  Level Indianapolis Center
11:03AM 38.4914 -81.0617 256° West 392 451 36,000  Level Indianapolis Center
11:04AM 38.4650 -81.1969 256° West 391 450 36,000  Level Indianapolis Center
11:05AM 38.4375 -81.3308 255° West 388 447 36,000  Level Indianapolis Center
11:06AM 38.4103 -81.4667 256° West 390 449 36,000  Level Indianapolis Center
11:07AM 38.3836 -81.6031 256° West 391 450 36,000  Level Indianapolis Center
11:08AM 38.3567 -81.7372 256° West 388 447 36,000  Level Indianapolis Center
11:09AM 38.3231 -81.8703 252° West 393 452 36,000  Level Indianapolis Center
11:10AM 38.2858 -81.9986 250° West 386 444 36,000  Level Indianapolis Center
11:11AM 38.2408 -82.1544 250° West 390 449 36,000  Level Indianapolis Center
11:12AM 38.2053 -82.2867 251° West 393 452 36,000  Level Indianapolis Center
11:13AM 38.1686 -82.4186 251° West 394 453 36,000  Level Indianapolis Center
11:14AM 38.1300 -82.5467 249° West 392 451 36,000  Level Indianapolis Center
11:15AM 38.0922 -82.6781 250° West 394 453 36,000  Level Indianapolis Center
11:16AM 38.0525 -82.8086 249° West 398 458 36,000  Level Indianapolis Center
11:17AM 37.9839 -82.9475 238° Southwest 396 456 36,000  Level Indianapolis Center
11:18AM 37.9253 -83.0683 238° Southwest 401 461 36,000 -240 Level Indianapolis Center
11:19AM 37.8661 -83.1900 238° Southwest 404 465 35,600 -660 Descending Indianapolis Center
11:20AM 37.8078 -83.3108 239° Southwest 404 465 34,700 -780 Descending Indianapolis Center
11:21AM 37.7478 -83.4322 238° Southwest 406 467 34,000 -360 Descending Indianapolis Center
11:22AM 37.6786 -83.5739 238° Southwest 406 467 34,000  Level Indianapolis Center
11:23AM 37.6181 -83.6961 238° Southwest 411 473 34,000  Level Indianapolis Center
11:24AM 37.5561 -83.8197 238° Southwest 416 479 34,000  Level Indianapolis Center
11:25AM 37.4947 -83.9433 238° Southwest 417 480 34,000 -540 Level Indianapolis Center
11:26AM 37.4339 -84.0642 238° Southwest 412 474 33,000 -960 Descending Indianapolis Center
11:27AM 37.3739 -84.1856 238° Southwest 411 473 32,100 -1,020 Descending Indianapolis Center
11:28AM 37.3042 -84.3233 238° Southwest 403 464 31,000 -1,080 Descending Indianapolis Center
11:29AM 37.2439 -84.4431 238° Southwest 404 465 30,000 -1,020 Descending Indianapolis Center
11:30AM 37.1842 -84.5597 237° Southwest 400 460 29,000 -1,020 Descending Indianapolis Center
11:32AM 37.1253 -84.6767 238° Southwest 396 456 28,000 -1,020 Descending Indianapolis Center
11:33AM 37.0658 -84.7911 237° Southwest 392 451 27,000 -1,080 Descending Indianapolis Center
11:34AM 37.0022 -84.9144 237° Southwest 380 437 25,800 -1,080 Descending Indianapolis Center
11:35AM 36.9461 -85.0247 238° Southwest 377 434 24,800 -960 Descending Indianapolis Center
11:36AM 36.8903 -85.1325 237° Southwest 372 428 23,900 -960 Descending Indianapolis Center
11:37AM 36.8361 -85.2375 237° Southwest 363 418 22,900 -960 Descending Indianapolis Center
11:38AM 36.7836 -85.3417 238° Southwest 357 411 22,000 -600 Descending Indianapolis Center
11:38AM 36.7494 -85.4033 235° Southwest 370 426 22,000 -300 Level Memphis Center
11:39AM 36.6958 -85.5231 241° Southwest 370 426 21,600 -900 Descending Memphis Center
11:40AM 36.6475 -85.6167 237° Southwest 370 426 20,200 -1,800 Descending Memphis Center
11:41AM 36.6011 -85.7175 240° Southwest 360 414 18,100 -2,280 Descending Memphis Center
11:42AM 36.5531 -85.8261 241° Southwest 339 390 15,700 -2,220 Descending Memphis Center
11:43AM 36.5086 -85.9189 239° Southwest 322 371 13,700 -1,860 Descending Memphis Center
11:44AM 36.4697 -85.9986 239° Southwest 317 365 12,000 -1,620 Descending Memphis Center
11:45AM 36.4331 -86.0856 242° Southwest 303 349 10,500 -1,380 Descending Memphis Center
11:46AM 36.4047 -86.1722 248° West 279 321 9,300 -1,140 Descending Memphis Center
11:47AM 36.3803 -86.2533 249° West 273 314 8,300 -1,080 Descending Memphis Center
11:48AM 36.3517 -86.3347 246° West 268 308 7,200 -1,320 Descending Memphis Center
11:49AM 36.3253 -86.4158 248° West 263 303 5,700 -1,620 Descending Memphis Center
11:50AM 36.2989 -86.5022 249° West 251 289 4,000 -1,560 Descending Memphis Center
11:51AM 36.2656 -86.5731 240° Southwest 251 289 2,600 -780 Descending Memphis Center
11:52AM 36.2256 -86.6264 227° Southwest 226 260 2,500 -480 Descending Memphis Center
11:53AM 36.1931 -86.6589 219° Southwest 182 209 1,700 -780 Descending Memphis Center
11:54AM 36.1581 -86.6706 195° South 148 170 1,000 -600 Descending Memphis Center
11:55AM 36.1208 -86.6878 200° South 143 165 600 -420 Descending Memphis Center
11:58AM 36.1245 -86.6782 90° East  Level Estimated
12:05PM 36.1245 -86.6782 90° East  Level Estimated
12:06PM 36.1245 -86.6782 90° East  Level Estimated
12:07PM 36.1245 -86.6782 90° East  Level Estimated
12:08PM 36.1245 -86.6782 90° East  Level Estimated
12:09PM 36.1245 -86.6782 90° East  Level Estimated
12:10PM 36.1245 -86.6782 90° East  Level Estimated
12:11PM 36.1245 -86.6782 90° East  Level Estimated